createdAt,value
2019-05-09T00:02:03.455Z,13.00
2019-05-09T00:04:29.321Z,13.00
2019-05-09T00:06:55.443Z,12.88
2019-05-09T00:09:23.161Z,13.00
2019-05-09T00:11:48.991Z,12.94
2019-05-09T00:14:15.107Z,13.13
2019-05-09T00:16:41.215Z,13.19
2019-05-09T00:19:07.067Z,12.88
2019-05-09T00:21:43.545Z,13.06
2019-05-09T00:24:08.855Z,13.00
2019-05-09T00:26:34.720Z,13.06
2019-05-09T00:29:05.248Z,12.94
2019-05-09T00:31:38.643Z,13.06
2019-05-09T00:34:06.375Z,13.13
2019-05-09T00:36:33.441Z,12.94
2019-05-09T00:38:59.439Z,13.06
2019-05-09T00:41:25.315Z,13.06
2019-05-09T00:43:55.600Z,13.00
2019-05-09T00:46:25.951Z,12.94
2019-05-09T00:49:05.053Z,13.13
2019-05-09T00:51:31.171Z,12.94
2019-05-09T00:53:57.014Z,13.00
2019-05-09T00:56:23.939Z,12.81
2019-05-09T00:58:50.191Z,12.94
2019-05-09T01:01:16.043Z,12.81
2019-05-09T01:03:43.227Z,12.81
2019-05-09T01:06:09.424Z,12.94
2019-05-09T01:08:35.263Z,12.94
2019-05-09T01:11:09.383Z,12.88
2019-05-09T01:13:28.866Z,12.94
2019-05-09T01:15:54.704Z,12.81
2019-05-09T01:18:20.530Z,12.81
2019-05-09T01:20:46.370Z,12.94
2019-05-09T01:23:14.245Z,13.06
2019-05-09T01:25:39.919Z,12.88
2019-05-09T01:28:05.761Z,12.81
2019-05-09T01:30:33.603Z,12.94
2019-05-09T01:33:18.054Z,12.81
2019-05-09T01:35:44.164Z,12.94
2019-05-09T01:38:10.019Z,12.88
2019-05-09T01:40:35.841Z,12.94
2019-05-09T01:43:01.697Z,12.81
2019-05-09T01:45:27.622Z,12.88
2019-05-09T01:47:53.899Z,12.75
2019-05-09T01:50:19.802Z,13.06
2019-05-09T01:52:45.646Z,12.75
2019-05-09T01:55:14.037Z,12.88
2019-05-09T01:57:39.512Z,12.94
2019-05-09T02:00:05.945Z,12.88
2019-05-09T02:02:33.714Z,12.88
2019-05-09T02:04:59.474Z,12.75
2019-05-09T02:07:25.302Z,12.75
2019-05-09T02:09:51.150Z,12.81
2019-05-09T02:12:17.030Z,12.69
2019-05-09T02:14:56.704Z,12.75
2019-05-09T02:17:24.426Z,12.75
2019-05-09T02:19:50.281Z,12.75
2019-05-09T02:22:34.899Z,12.69
2019-05-09T02:25:04.270Z,12.81
2019-05-09T02:27:30.296Z,12.75
2019-05-09T02:29:56.170Z,12.81
2019-05-09T02:32:24.048Z,12.69
2019-05-09T02:34:49.848Z,12.81
2019-05-09T02:37:18.720Z,12.81
2019-05-09T02:39:43.524Z,12.81
2019-05-09T02:42:13.901Z,12.75
2019-05-09T02:44:39.513Z,12.75
2019-05-09T02:47:17.996Z,12.88
2019-05-09T02:49:43.510Z,12.75
2019-05-09T02:52:09.376Z,12.81
2019-05-09T02:54:35.203Z,12.75
2019-05-09T02:57:01.030Z,12.75
2019-05-09T02:59:29.658Z,12.75
2019-05-09T03:02:03.962Z,12.94
2019-05-09T03:04:29.907Z,12.94
2019-05-09T03:06:55.851Z,12.88
2019-05-09T03:09:21.804Z,12.88
2019-05-09T03:11:48.699Z,12.81
2019-05-09T03:14:14.754Z,12.75
2019-05-09T03:16:40.598Z,12.75
2019-05-09T03:19:09.118Z,12.69
2019-05-09T03:21:38.999Z,12.56
2019-05-09T03:24:03.825Z,12.69
2019-05-09T03:26:31.654Z,12.63
2019-05-09T03:28:59.515Z,12.56
2019-05-09T03:31:33.744Z,12.63
2019-05-09T03:33:59.940Z,12.69
2019-05-09T03:36:28.085Z,12.75
2019-05-09T03:38:53.810Z,12.56
2019-05-09T03:41:19.651Z,12.56
2019-05-09T03:43:45.491Z,12.56
2019-05-09T03:46:17.917Z,12.69
2019-05-09T03:48:48.262Z,12.69
2019-05-09T03:51:14.222Z,12.56
2019-05-09T03:53:40.063Z,12.50
2019-05-09T03:56:07.959Z,12.56
2019-05-09T03:58:33.844Z,12.56
2019-05-09T04:00:59.969Z,12.63
2019-05-09T04:03:27.684Z,12.63
2019-05-09T04:05:59.232Z,12.75
2019-05-09T04:08:21.495Z,12.63
2019-05-09T04:10:51.403Z,12.69
2019-05-09T04:13:18.091Z,12.56
2019-05-09T04:15:43.988Z,12.69
2019-05-09T04:18:09.836Z,12.63
2019-05-09T04:20:37.597Z,12.63
2019-05-09T04:23:03.403Z,12.75
2019-05-09T04:25:31.179Z,12.56
2019-05-09T04:27:58.281Z,12.56
2019-05-09T04:30:24.373Z,12.63
2019-05-09T04:32:50.197Z,12.63
2019-05-09T04:35:17.532Z,12.63
2019-05-09T04:37:43.547Z,12.69
2019-05-09T04:40:09.523Z,12.75
2019-05-09T04:42:43.061Z,12.75
2019-05-09T04:45:23.900Z,12.75
2019-05-09T04:47:49.841Z,12.69
2019-05-09T04:50:23.565Z,12.75
2019-05-09T04:52:43.572Z,12.81
2019-05-09T04:55:10.504Z,12.81
2019-05-09T04:57:38.248Z,12.75
2019-05-09T05:00:07.580Z,12.94
2019-05-09T05:02:41.180Z,12.81
2019-05-09T05:05:07.787Z,12.81
2019-05-09T05:07:33.979Z,12.88
2019-05-09T05:09:59.839Z,12.94
2019-05-09T05:12:27.600Z,12.94
2019-05-09T05:14:53.439Z,12.94
2019-05-09T05:17:19.370Z,12.81
2019-05-09T05:19:47.455Z,12.81
2019-05-09T05:22:18.271Z,13.00
2019-05-09T05:24:48.525Z,12.94
2019-05-09T05:27:15.020Z,12.81
2019-05-09T05:29:40.888Z,12.81
2019-05-09T05:32:08.749Z,12.81
2019-05-09T05:34:42.416Z,12.81
2019-05-09T05:37:08.371Z,12.81
2019-05-09T05:39:34.329Z,12.88
2019-05-09T05:42:00.184Z,12.88
2019-05-09T05:44:28.103Z,12.81
2019-05-09T05:46:58.596Z,12.88
2019-05-09T05:49:24.810Z,12.94
2019-05-09T05:51:50.765Z,12.88
2019-05-09T05:54:20.076Z,12.94
2019-05-09T05:56:47.460Z,13.00
2019-05-09T05:59:14.486Z,12.94
2019-05-09T06:01:40.431Z,13.00
2019-05-09T06:04:07.599Z,13.13
2019-05-09T06:06:33.753Z,13.06
2019-05-09T06:08:59.636Z,13.06
2019-05-09T06:11:27.908Z,13.06
2019-05-09T06:13:57.523Z,13.13
2019-05-09T06:16:22.329Z,13.13
2019-05-09T06:18:48.400Z,13.06
2019-05-09T06:21:14.239Z,13.00
2019-05-09T06:23:40.444Z,13.00
2019-05-09T06:26:09.922Z,13.06
2019-05-09T06:28:34.044Z,13.06
2019-05-09T06:31:00.630Z,13.13
2019-05-09T06:33:28.605Z,13.19
2019-05-09T06:35:54.343Z,13.25
2019-05-09T06:38:20.216Z,13.25
2019-05-09T06:40:47.574Z,13.38
2019-05-09T06:43:18.312Z,13.31
2019-05-09T06:45:48.476Z,13.31
2019-05-09T06:48:14.764Z,13.62
2019-05-09T06:50:40.790Z,13.56
2019-05-09T06:53:08.028Z,13.62
2019-05-09T06:55:34.114Z,13.50
2019-05-09T06:58:01.945Z,13.56
2019-05-09T07:00:37.883Z,13.50
2019-05-09T07:03:14.830Z,13.44
2019-05-09T07:06:00.402Z,13.44
2019-05-09T07:08:30.991Z,13.50
2019-05-09T07:10:58.326Z,13.50
2019-05-09T07:13:23.808Z,13.44
2019-05-09T07:15:49.670Z,13.56
2019-05-09T07:18:15.529Z,13.56
2019-05-09T07:20:41.386Z,13.69
2019-05-09T07:23:09.014Z,13.75
2019-05-09T07:25:37.776Z,13.75
2019-05-09T07:28:03.797Z,13.81
2019-05-09T07:30:34.487Z,13.81
2019-05-09T07:33:02.522Z,13.81
2019-05-09T07:35:28.462Z,13.88
2019-05-09T07:37:54.302Z,13.75
2019-05-09T07:40:22.078Z,13.75
2019-05-09T07:42:48.194Z,13.88
2019-05-09T07:45:17.837Z,13.81
2019-05-09T07:47:43.878Z,13.81
2019-05-09T07:50:10.191Z,13.88
2019-05-09T07:52:38.576Z,13.88
2019-05-09T07:55:04.656Z,13.88
2019-05-09T07:57:30.537Z,13.81
2019-05-09T07:59:58.478Z,14.06
2019-05-09T08:02:24.245Z,13.81
2019-05-09T08:04:50.219Z,13.81
2019-05-09T08:07:17.611Z,13.81
2019-05-09T08:09:43.628Z,13.88
2019-05-09T08:12:09.490Z,13.88
2019-05-09T08:14:37.544Z,13.88
2019-05-09T08:17:03.216Z,13.94
2019-05-09T08:19:29.072Z,14.00
2019-05-09T08:21:57.334Z,14.06
2019-05-09T08:24:22.981Z,14.06
2019-05-09T08:26:48.860Z,14.13
2019-05-09T08:29:14.723Z,14.13
2019-05-09T08:31:40.641Z,14.13
2019-05-09T08:34:08.339Z,14.31
2019-05-09T08:36:34.263Z,14.13
2019-05-09T08:39:00.233Z,14.25
2019-05-09T08:41:38.620Z,14.25
2019-05-09T08:44:04.642Z,14.19
2019-05-09T08:46:30.555Z,14.13
2019-05-09T08:48:57.554Z,14.19
2019-05-09T08:51:35.295Z,14.25
2019-05-09T08:53:53.553Z,14.31
2019-05-09T08:56:19.431Z,14.31
2019-05-09T08:58:45.384Z,14.44
2019-05-09T09:01:11.999Z,14.38
2019-05-09T09:03:38.147Z,14.31
2019-05-09T09:06:04.115Z,14.44
2019-05-09T09:08:30.071Z,14.44
2019-05-09T09:10:57.753Z,14.44
2019-05-09T09:13:23.884Z,14.50
2019-05-09T09:16:08.628Z,14.63
2019-05-09T09:18:18.082Z,14.69
2019-05-09T09:20:48.600Z,14.81
2019-05-09T09:23:14.104Z,14.94
2019-05-09T09:25:39.991Z,15.00
2019-05-09T09:28:08.487Z,15.06
2019-05-09T09:30:33.723Z,14.87
2019-05-09T09:32:59.723Z,14.87
2019-05-09T09:35:28.005Z,15.00
2019-05-09T09:37:54.077Z,15.06
2019-05-09T09:40:20.013Z,15.13
2019-05-09T09:42:48.834Z,15.25
2019-05-09T09:45:13.868Z,15.31
2019-05-09T09:47:40.433Z,15.31
2019-05-09T09:50:08.777Z,15.19
2019-05-09T09:52:34.702Z,15.25
2019-05-09T09:55:03.903Z,15.19
2019-05-09T09:57:29.822Z,15.25
2019-05-09T09:59:58.404Z,15.31
2019-05-09T10:02:27.929Z,15.44
2019-05-09T10:04:54.020Z,15.44
2019-05-09T10:07:20.123Z,15.50
2019-05-09T10:09:47.953Z,15.69
2019-05-09T10:12:13.898Z,15.56
2019-05-09T10:14:41.762Z,15.56
2019-05-09T10:17:12.737Z,15.56
2019-05-09T10:19:48.221Z,15.50
2019-05-09T10:22:23.411Z,15.50
2019-05-09T10:24:47.911Z,15.44
2019-05-09T10:27:18.264Z,15.44
2019-05-09T10:29:43.397Z,15.31
2019-05-09T10:32:11.393Z,15.19
2019-05-09T10:34:37.859Z,15.25
2019-05-09T10:37:03.815Z,15.31
2019-05-09T10:39:29.772Z,15.38
2019-05-09T10:41:57.702Z,15.38
2019-05-09T10:44:25.629Z,15.44
2019-05-09T10:46:57.726Z,15.44
2019-05-09T10:49:21.248Z,15.44
2019-05-09T10:51:48.521Z,15.50
2019-05-09T10:54:14.810Z,15.69
2019-05-09T10:56:40.776Z,15.88
2019-05-09T10:59:07.753Z,16.06
2019-05-09T11:01:37.995Z,16.12
2019-05-09T11:04:01.906Z,16.12
2019-05-09T11:06:28.707Z,16.06
2019-05-09T11:08:54.894Z,16.12
2019-05-09T11:11:20.798Z,16.12
2019-05-09T11:13:48.201Z,16.12
2019-05-09T11:16:14.621Z,16.00
2019-05-09T11:18:40.466Z,16.00
2019-05-09T11:21:08.376Z,16.06
2019-05-09T11:23:34.158Z,15.94
2019-05-09T11:26:00.111Z,16.00
2019-05-09T11:28:28.386Z,15.88
2019-05-09T11:30:53.756Z,15.56
2019-05-09T11:33:19.700Z,15.38
2019-05-09T11:35:47.941Z,15.38
2019-05-09T11:38:13.657Z,15.25
2019-05-09T11:40:39.728Z,15.25
2019-05-09T11:43:05.648Z,15.19
2019-05-09T11:45:31.532Z,15.13
2019-05-09T11:47:58.584Z,15.06
2019-05-09T11:50:24.546Z,15.19
2019-05-09T11:52:50.554Z,15.13
2019-05-09T11:55:29.704Z,15.25
2019-05-09T11:57:44.626Z,15.44
2019-05-09T12:00:11.083Z,15.56
2019-05-09T12:02:38.538Z,15.56
2019-05-09T12:05:05.172Z,15.56
2019-05-09T12:07:31.029Z,15.63
2019-05-09T12:09:58.892Z,15.81
2019-05-09T12:12:39.908Z,15.75
2019-05-09T12:15:08.560Z,16.00
2019-05-09T12:17:49.769Z,15.88
2019-05-09T12:20:12.403Z,15.94
2019-05-09T12:22:33.770Z,15.94
2019-05-09T12:24:59.626Z,16.06
2019-05-09T12:27:28.055Z,16.06
2019-05-09T12:29:54.216Z,16.25
2019-05-09T12:32:22.070Z,16.25
2019-05-09T12:34:48.077Z,16.37
2019-05-09T12:37:13.984Z,16.25
2019-05-09T12:39:39.825Z,16.31
2019-05-09T12:42:05.713Z,16.31
2019-05-09T12:44:31.560Z,16.31
2019-05-09T12:46:58.195Z,16.44
2019-05-09T12:49:24.282Z,16.50
2019-05-09T12:51:50.205Z,16.31
2019-05-09T12:54:18.770Z,16.31
2019-05-09T12:56:44.935Z,16.25
2019-05-09T12:59:10.850Z,16.25
2019-05-09T13:01:40.873Z,16.25
2019-05-09T13:04:04.533Z,16.25
2019-05-09T13:06:30.491Z,16.31
2019-05-09T13:08:58.323Z,16.19
2019-05-09T13:11:24.101Z,16.19
2019-05-09T13:13:49.969Z,16.19
2019-05-09T13:16:47.511Z,16.12
2019-05-09T13:19:02.838Z,16.19
2019-05-09T13:21:32.833Z,16.12
2019-05-09T13:23:58.887Z,16.12
2019-05-09T13:26:25.026Z,16.19
2019-05-09T13:28:51.252Z,15.94
2019-05-09T13:31:18.135Z,15.94
2019-05-09T13:33:44.322Z,15.94
2019-05-09T13:36:10.183Z,15.94
2019-05-09T13:38:37.824Z,16.00
2019-05-09T13:41:03.956Z,16.12
2019-05-09T13:43:29.921Z,16.12
2019-05-09T13:45:55.876Z,16.25
2019-05-09T13:48:32.704Z,16.19
2019-05-09T13:50:49.831Z,16.31
2019-05-09T13:53:16.062Z,16.37
2019-05-09T13:55:41.918Z,16.37
2019-05-09T13:58:07.807Z,16.37
2019-05-09T14:00:33.755Z,16.25
2019-05-09T14:02:59.661Z,16.25
2019-05-09T14:05:28.912Z,16.31
2019-05-09T14:08:02.011Z,16.37
2019-05-09T14:10:25.529Z,16.44
2019-05-09T14:13:05.795Z,16.56
2019-05-09T14:15:19.255Z,16.69
2019-05-09T14:17:52.484Z,16.81
2019-05-09T14:20:13.181Z,16.75
2019-05-09T14:22:39.143Z,16.94
2019-05-09T14:25:07.295Z,17.12
2019-05-09T14:27:33.060Z,16.94
2019-05-09T14:29:59.623Z,16.87
2019-05-09T14:32:26.705Z,16.75
2019-05-09T14:34:52.821Z,16.75
2019-05-09T14:37:18.759Z,16.81
2019-05-09T14:39:55.746Z,16.81
2019-05-09T14:42:12.433Z,16.87
2019-05-09T14:44:38.414Z,16.87
2019-05-09T14:47:04.396Z,16.81
2019-05-09T14:49:40.417Z,16.87
2019-05-09T14:51:58.163Z,16.81
2019-05-09T14:54:24.049Z,16.87
2019-05-09T14:56:49.914Z,16.81
2019-05-09T14:59:18.456Z,16.81
2019-05-09T15:01:44.196Z,16.87
2019-05-09T15:04:10.372Z,16.81
2019-05-09T15:06:36.379Z,16.81
2019-05-09T15:09:05.117Z,16.81
2019-05-09T15:11:30.968Z,16.94
2019-05-09T15:13:58.502Z,17.00
2019-05-09T15:16:24.608Z,17.00
2019-05-09T15:18:50.474Z,17.12
2019-05-09T15:21:18.911Z,17.06
2019-05-09T15:23:44.900Z,17.06
2019-05-09T15:26:10.784Z,17.00
2019-05-09T15:28:38.596Z,17.00
2019-05-09T15:31:04.511Z,17.06
2019-05-09T15:33:30.436Z,17.00
2019-05-09T15:35:58.691Z,17.00
2019-05-09T15:38:24.154Z,17.06
2019-05-09T15:40:50.241Z,16.87
2019-05-09T15:43:18.357Z,17.19
2019-05-09T15:45:45.849Z,16.87
2019-05-09T15:48:11.856Z,16.75
2019-05-09T15:50:38.194Z,16.69
2019-05-09T15:53:04.334Z,16.69
2019-05-09T15:55:30.202Z,16.62
2019-05-09T15:57:57.692Z,16.56
2019-05-09T16:00:24.242Z,16.62
2019-05-09T16:02:50.139Z,16.94
2019-05-09T16:05:18.012Z,17.06
2019-05-09T16:07:48.268Z,17.19
2019-05-09T16:10:14.454Z,17.12
2019-05-09T16:12:40.431Z,17.06
2019-05-09T16:15:07.818Z,16.94
2019-05-09T16:17:33.988Z,17.00
2019-05-09T16:19:59.820Z,16.94
2019-05-09T16:22:28.421Z,16.81
2019-05-09T16:24:53.911Z,16.87
2019-05-09T16:27:19.779Z,16.94
2019-05-09T16:29:45.628Z,16.94
2019-05-09T16:32:11.586Z,16.87
2019-05-09T16:34:38.710Z,16.81
2019-05-09T16:37:04.738Z,17.00
2019-05-09T16:39:30.612Z,16.75
2019-05-09T16:41:59.246Z,16.81
2019-05-09T16:44:24.275Z,17.00
2019-05-09T16:46:50.252Z,17.00
2019-05-09T16:49:17.510Z,16.94
2019-05-09T16:51:44.197Z,16.81
2019-05-09T16:54:10.160Z,16.94
2019-05-09T16:56:38.253Z,16.94
2019-05-09T16:59:04.024Z,17.06
2019-05-09T17:01:29.912Z,17.00
2019-05-09T17:03:57.535Z,17.12
2019-05-09T17:06:23.657Z,17.06
2019-05-09T17:08:49.618Z,16.87
2019-05-09T17:11:18.973Z,16.75
2019-05-09T17:13:45.849Z,16.56
2019-05-09T17:16:11.847Z,16.94
2019-05-09T17:21:37.764Z,16.94
2019-05-09T17:24:05.664Z,17.19
2019-05-09T17:26:31.595Z,16.75
2019-05-09T17:28:57.662Z,17.06
2019-05-09T17:31:23.557Z,17.06
2019-05-09T17:33:49.398Z,17.00
2019-05-09T17:36:18.236Z,16.87
2019-05-09T17:38:44.320Z,16.62
2019-05-09T17:41:10.268Z,16.56
2019-05-09T17:43:38.227Z,16.81
2019-05-09T17:46:03.893Z,16.87
2019-05-09T17:48:29.773Z,17.00
2019-05-09T17:50:57.717Z,16.94
2019-05-09T17:53:23.467Z,16.69
2019-05-09T17:55:49.396Z,16.81
2019-05-09T17:58:27.101Z,16.81
2019-05-09T18:00:48.582Z,16.56
2019-05-09T18:03:14.736Z,16.44
2019-05-09T18:05:40.674Z,16.31
2019-05-09T18:08:08.056Z,16.19
2019-05-09T18:10:38.075Z,16.00
2019-05-09T18:13:03.571Z,16.00
2019-05-09T18:15:29.571Z,15.94
2019-05-09T18:17:55.507Z,16.12
2019-05-09T18:20:21.502Z,15.94
2019-05-09T18:22:47.904Z,15.88
2019-05-09T18:25:14.684Z,16.00
2019-05-09T18:27:40.861Z,16.12
2019-05-09T18:30:07.283Z,16.00
2019-05-09T18:32:51.411Z,16.44
2019-05-09T18:35:19.155Z,16.12
2019-05-09T18:37:44.976Z,15.69
2019-05-09T18:40:13.564Z,15.63
2019-05-09T18:42:41.389Z,15.56
2019-05-09T18:45:08.016Z,15.50
2019-05-09T18:47:34.183Z,15.44
2019-05-09T18:50:00.029Z,15.44
2019-05-09T18:52:25.972Z,15.75
2019-05-09T18:54:52.261Z,15.44
2019-05-09T18:57:18.207Z,15.31
2019-05-09T18:59:44.071Z,15.38
2019-05-09T19:02:09.964Z,15.44
2019-05-09T19:04:35.894Z,15.25
2019-05-09T19:07:01.762Z,15.25
2019-05-09T19:09:27.627Z,15.25
2019-05-09T19:11:53.716Z,15.25
2019-05-09T19:14:21.576Z,15.31
2019-05-09T19:16:52.147Z,15.25
2019-05-09T19:19:31.891Z,15.31
2019-05-09T19:22:04.645Z,15.19
2019-05-09T19:24:27.474Z,14.94
2019-05-09T19:26:53.334Z,15.00
2019-05-09T19:29:19.175Z,15.19
2019-05-09T19:31:45.018Z,15.06
2019-05-09T19:34:11.229Z,15.00
2019-05-09T19:36:37.132Z,14.81
2019-05-09T19:39:06.382Z,14.87
2019-05-09T19:41:32.652Z,15.13
2019-05-09T19:43:58.530Z,14.94
2019-05-09T19:46:24.448Z,14.75
2019-05-09T19:48:51.369Z,14.69
2019-05-09T19:51:17.293Z,14.75
2019-05-09T19:53:43.312Z,14.75
2019-05-09T19:56:09.272Z,14.94
2019-05-09T19:58:35.142Z,14.94
2019-05-09T20:01:00.980Z,14.81
2019-05-09T20:03:27.095Z,14.94
2019-05-09T20:05:53.001Z,14.69
2019-05-09T20:08:18.915Z,14.63
2019-05-09T20:11:01.606Z,14.75
2019-05-09T20:13:38.109Z,14.63
2019-05-09T20:16:04.000Z,14.75
2019-05-09T20:18:29.940Z,14.50
2019-05-09T20:20:55.910Z,14.63
2019-05-09T20:23:22.037Z,14.63
2019-05-09T20:25:47.992Z,14.44
2019-05-09T20:28:13.983Z,14.56
2019-05-09T20:30:39.871Z,14.44
2019-05-09T20:33:05.851Z,14.56
2019-05-09T20:35:31.757Z,14.50
2019-05-09T20:37:57.863Z,14.38
2019-05-09T20:40:23.824Z,14.38
2019-05-09T20:42:49.757Z,14.56
2019-05-09T20:45:15.642Z,14.31
2019-05-09T20:47:41.523Z,14.31
2019-05-09T20:50:10.185Z,14.31
2019-05-09T20:52:36.135Z,14.25
2019-05-09T20:55:03.214Z,14.31
2019-05-09T20:57:29.118Z,14.31
2019-05-09T20:59:55.050Z,14.25
2019-05-09T21:02:20.903Z,14.19
2019-05-09T21:04:46.870Z,14.38
2019-05-09T21:07:12.758Z,14.19
2019-05-09T21:09:38.717Z,14.25
2019-05-09T21:12:04.659Z,14.31
2019-05-09T21:14:30.527Z,14.25
2019-05-09T21:16:56.376Z,14.31
2019-05-09T21:19:22.224Z,14.06
2019-05-09T21:21:48.870Z,14.25
2019-05-09T21:24:14.780Z,14.19
2019-05-09T21:26:45.111Z,14.13
2019-05-09T21:29:08.847Z,14.00
2019-05-09T21:31:34.811Z,14.00
2019-05-09T21:34:00.781Z,13.88
2019-05-09T21:36:26.792Z,13.81
2019-05-09T21:38:54.658Z,13.88
2019-05-09T21:41:20.581Z,13.94
2019-05-09T21:43:46.433Z,13.75
2019-05-09T21:46:12.287Z,13.81
2019-05-09T21:48:40.791Z,13.88
2019-05-09T21:51:06.721Z,13.75
2019-05-09T21:53:41.005Z,13.69
2019-05-09T21:56:00.568Z,13.69
2019-05-09T21:58:26.435Z,13.75
2019-05-09T22:00:54.327Z,13.94
2019-05-09T22:03:20.356Z,14.00
2019-05-09T22:05:46.500Z,13.69
2019-05-09T22:08:12.365Z,13.75
2019-05-09T22:10:38.320Z,13.75
2019-05-09T22:13:04.277Z,13.81
2019-05-09T22:15:30.270Z,13.62
2019-05-09T22:17:56.214Z,13.69
2019-05-09T22:20:22.291Z,13.62
2019-05-09T22:22:48.156Z,13.69
2019-05-09T22:25:14.277Z,13.44
2019-05-09T22:27:40.119Z,13.62
2019-05-09T22:30:07.077Z,13.62
2019-05-09T22:32:33.051Z,13.75
2019-05-09T22:34:58.899Z,13.44
2019-05-09T22:37:24.849Z,13.62
2019-05-09T22:39:50.731Z,13.50
2019-05-09T22:42:16.653Z,13.56
2019-05-09T22:44:42.507Z,13.38
2019-05-09T22:47:08.362Z,13.38
2019-05-09T22:49:34.280Z,13.19
2019-05-09T22:52:00.915Z,13.38
2019-05-09T22:54:26.786Z,13.25
2019-05-09T22:56:52.760Z,13.25
2019-05-09T22:59:18.699Z,13.25
2019-05-09T23:01:44.567Z,13.06
2019-05-09T23:04:10.439Z,13.06
2019-05-09T23:06:36.448Z,13.06
2019-05-09T23:09:04.266Z,13.25
2019-05-09T23:11:30.114Z,13.13
2019-05-09T23:13:56.016Z,12.94
2019-05-09T23:16:22.412Z,13.06
2019-05-09T23:18:48.229Z,12.88
2019-05-09T23:21:14.055Z,12.88
2019-05-09T23:23:41.109Z,12.94
2019-05-09T23:26:07.087Z,13.13
2019-05-09T23:28:32.978Z,13.00
2019-05-09T23:31:03.416Z,12.88
2019-05-09T23:33:31.285Z,13.06
2019-05-09T23:35:57.233Z,13.00
2019-05-09T23:38:23.103Z,12.88
2019-05-09T23:40:48.980Z,12.94
2019-05-09T23:43:14.848Z,12.94
2019-05-09T23:45:40.787Z,12.88
2019-05-09T23:48:06.731Z,12.88
2019-05-09T23:50:32.614Z,12.94
2019-05-09T23:52:58.879Z,12.88
2019-05-09T23:55:43.472Z,12.69
2019-05-09T23:58:28.102Z,12.81
